Barreiros, Brazil
Current Conditions -  °F | °C
As of 9:00 AM on Wednesday 22 Oct 2014 (Local Time) from SBRF Reporting Station
Light Rain Light Rain  
Wind Chill: 79°   Ceiling: 1900
Heat Index: 82°   Visibility: 4mi
Dew Point: 72°   Wind: 5mph
Humidity: 78%   Direction: 50°NE
Pressure: 30"   Gusts: NA
Location:  8.82°S, 35.19°W
Report Text: SBRF 221200Z 05004KT 6000 -RA BKN019 BKN060 26/22 Q1016
Loading
Personal Weather Stations






























Interactive Weather Map
Tropical Storm Tracking
New forecast layout! Learn more

10-Day Weather Forecast

Advertisements
Track Severe Weather on mobile